Time;durP1;ratioP1;P1;durP2;ratioP2;P2;SDS_P1;SDS_P2;PMS_P1;PMS_P2;Temp;Humidity;BMP_temperature;BMP_pressure;BME280_temperature;BME280_humidity;BME280_pressure;Samples;Min_cycle;Max_cycle;Signal;HPM_P1;HPM_P2
2022/10/22 00:02:22;;;;;;;38.40;19.80;;;;;;;7.21;94.64;99441.61;106639;1283;72593;-74
2022/10/22 00:05:09;;;;;;;38.90;19.20;;;;;;;7.18;94.92;99438.80;106657;1282;58523;-74
2022/10/22 00:07:55;;;;;;;34.40;18.20;;;;;;;7.15;95.21;99438.27;106448;1283;61158;-74
2022/10/22 00:10:42;;;;;;;39.00;20.30;;;;;;;7.14;95.04;99436.58;106664;1282;71056;-75
2022/10/22 00:13:28;;;;;;;38.10;21.10;;;;;;;7.14;95.34;99441.16;106548;1284;67625;-75
2022/10/22 00:16:14;;;;;;;38.00;20.30;;;;;;;7.15;95.20;99439.18;106512;1281;73800;-74
2022/10/22 00:19:01;;;;;;;35.90;19.80;;;;;;;7.16;95.01;99435.89;106648;1282;60513;-75
2022/10/22 00:21:48;;;;;;;37.20;20.00;;;;;;;7.17;94.72;99435.86;106691;1279;58761;-74
2022/10/22 00:24:36;;;;;;;35.80;18.60;;;;;;;7.17;94.98;99437.44;106699;1275;74003;-74
2022/10/22 00:27:23;;;;;;;32.60;18.10;;;;;;;7.15;95.14;99436.20;106681;1282;65324;-74
2022/10/22 00:30:11;;;;;;;34.70;19.20;;;;;;;7.13;95.33;99431.91;106661;1282;72439;-73
2022/10/22 00:32:57;;;;;;;31.30;16.80;;;;;;;7.13;95.48;99434.75;106647;1283;60580;-74
2022/10/22 00:35:44;;;;;;;36.30;18.10;;;;;;;7.13;95.71;99431.03;106680;1282;58949;-73
2022/10/22 00:38:30;;;;;;;36.50;19.10;;;;;;;7.15;95.78;99427.19;106673;1281;73835;-72
2022/10/22 00:41:17;;;;;;;33.50;18.50;;;;;;;7.16;95.99;99420.56;106685;1282;67638;-73
2022/10/22 00:44:05;;;;;;;37.10;17.60;;;;;;;7.20;95.77;99421.38;106510;1282;71664;-74
2022/10/22 00:46:52;;;;;;;32.70;17.40;;;;;;;7.24;95.44;99420.19;106562;1289;57376;-74
2022/10/22 00:49:39;;;;;;;30.20;15.60;;;;;;;7.27;95.37;99417.31;106665;1288;60165;-74
2022/10/22 00:52:28;;;;;;;38.20;19.70;;;;;;;7.28;95.42;99411.93;106536;1282;72672;-74
2022/10/22 00:55:15;;;;;;;38.60;19.80;;;;;;;7.30;95.27;99404.00;106665;1282;67651;-73
2022/10/22 00:58:02;;;;;;;39.50;19.90;;;;;;;7.34;95.31;99403.36;106546;1285;71720;-75
2022/10/22 01:00:49;;;;;;;36.80;19.30;;;;;;;7.38;94.84;99399.77;106479;1290;59364;-76
2022/10/22 01:03:35;;;;;;;38.90;19.60;;;;;;;7.41;94.95;99398.80;106573;1278;61244;-75
2022/10/22 01:06:33;;;;;;;35.00;19.60;;;;;;;7.47;95.00;99399.02;106670;1282;72979;-76
2022/10/22 01:09:44;;;;;;;31.30;17.80;;;;;;;7.53;94.81;99393.70;106533;1285;66445;-74
2022/10/22 01:12:55;;;;;;;32.50;17.50;;;;;;;7.55;94.37;99390.65;106525;1283;73528;-75
2022/10/22 01:16:06;;;;;;;33.00;18.60;;;;;;;7.58;94.66;99388.68;106647;1283;57684;-75
2022/10/22 01:19:39;;;;;;;29.70;17.30;;;;;;;7.61;94.27;99380.88;106578;1278;61271;-75
2022/10/22 01:22:37;;;;;;;33.00;18.50;;;;;;;7.62;94.11;99378.36;106458;1289;73970;-75
2022/10/22 01:25:45;;;;;;;33.30;17.50;;;;;;;7.63;93.94;99374.39;106537;1287;67664;-75
2022/10/22 01:28:57;;;;;;;34.80;18.90;;;;;;;7.64;94.09;99373.42;106525;1290;72468;-75
2022/10/22 01:31:56;;;;;;;35.60;17.50;;;;;;;7.66;94.30;99370.23;106633;1282;59481;-76
2022/10/22 01:34:51;;;;;;;40.10;19.70;;;;;;;7.72;93.86;99371.74;106530;1281;61136;-76
2022/10/22 01:37:48;;;;;;;38.30;19.20;;;;;;;7.74;93.38;99369.45;106664;1288;70732;-75
2022/10/22 01:40:35;;;;;;;32.90;19.60;;;;;;;7.74;93.35;99372.81;106568;1281;66132;-75
2022/10/22 01:43:24;;;;;;;35.60;19.80;;;;;;;7.73;93.21;99377.15;106667;1282;72966;-75
2022/10/22 01:46:11;;;;;;;34.70;20.70;;;;;;;7.72;93.17;99375.63;106673;1287;59311;-75
2022/10/22 01:49:01;;;;;;;39.80;19.70;;;;;;;7.73;93.13;99374.66;106522;1291;60171;-74
2022/10/22 01:52:14;;;;;;;36.80;20.90;;;;;;;7.73;93.17;99370.27;106662;1281;72287;-75
2022/10/22 01:55:09;;;;;;;37.50;20.00;;;;;;;7.75;92.86;99368.16;106604;1283;66360;-75
2022/10/22 01:58:18;;;;;;;34.80;19.20;;;;;;;7.76;92.96;99368.42;106678;1276;72420;-73
2022/10/22 02:01:27;;;;;;;35.20;19.90;;;;;;;7.80;93.00;99363.67;106544;1281;58861;-74
2022/10/22 02:04:18;;;;;;;37.60;19.80;;;;;;;7.85;92.60;99367.73;106520;1282;58752;-74
2022/10/22 02:07:09;;;;;;;34.20;20.00;;;;;;;7.84;92.66;99362.86;106665;1283;71522;-74
2022/10/22 02:09:58;;;;;;;37.30;20.40;;;;;;;7.83;92.63;99366.98;106558;1288;68653;-75
2022/10/22 02:12:50;;;;;;;35.20;19.80;;;;;;;7.81;92.39;99372.25;106679;1289;71345;-76
2022/10/22 02:15:38;;;;;;;36.40;20.80;;;;;;;7.77;92.38;99375.08;106407;1281;60496;-75
2022/10/22 02:18:29;;;;;;;36.50;20.40;;;;;;;7.73;92.42;99378.52;106567;1282;58622;-76
2022/10/22 02:21:15;;;;;;;37.20;21.30;;;;;;;7.70;92.74;99372.45;106531;1286;73988;-75
2022/10/22 02:24:02;;;;;;;36.20;20.50;;;;;;;7.67;92.54;99369.98;106513;1282;68020;-75
2022/10/22 02:27:16;;;;;;;39.80;20.10;;;;;;;7.63;92.87;99365.00;106560;1282;72753;-76
2022/10/22 02:30:10;;;;;;;36.20;19.50;;;;;;;7.59;93.11;99363.19;106545;1282;57689;-76
2022/10/22 02:33:10;;;;;;;35.30;19.30;;;;;;;7.55;93.31;99363.83;106563;1274;61181;-76
2022/10/22 02:35:59;;;;;;;31.60;17.90;;;;;;;7.53;93.34;99364.38;106349;1275;74066;-75
2022/10/22 02:38:46;;;;;;;33.30;18.60;;;;;;;7.49;93.30;99368.20;106649;1282;68815;-76
2022/10/22 02:41:34;;;;;;;34.90;19.80;;;;;;;7.45;93.64;99365.64;106542;1282;71112;-76
2022/10/22 02:44:21;;;;;;;36.50;19.00;;;;;;;7.44;94.19;99362.42;106522;1285;59255;-75
2022/10/22 02:47:07;;;;;;;33.90;18.80;;;;;;;7.40;94.64;99363.92;106670;1281;58739;-74
2022/10/22 02:49:54;;;;;;;33.90;20.30;;;;;;;7.39;94.20;99362.61;106625;1275;72928;-75
2022/10/22 02:52:41;;;;;;;33.50;18.00;;;;;;;7.40;94.38;99358.98;106643;1283;68702;-75
2022/10/22 02:55:28;;;;;;;35.10;19.20;;;;;;;7.41;94.77;99358.70;106655;1289;73708;-75
2022/10/22 02:58:14;;;;;;;35.50;18.70;;;;;;;7.43;94.95;99359.45;106523;1284;58038;-75
2022/10/22 03:01:01;;;;;;;29.40;18.20;;;;;;;7.44;94.84;99358.70;106658;1282;61118;-76
2022/10/22 03:03:47;;;;;;;35.70;19.90;;;;;;;7.44;95.02;99361.69;106614;1274;72854;-77
2022/10/22 03:06:34;;;;;;;33.60;19.20;;;;;;;7.43;95.12;99360.55;106663;1282;67712;-75
2022/10/22 03:09:20;;;;;;;33.40;18.20;;;;;;;7.44;95.32;99360.33;106633;1283;72862;-77
2022/10/22 03:12:10;;;;;;;31.20;19.30;;;;;;;7.43;95.17;99356.27;106697;1282;58316;-76
2022/10/22 03:14:57;;;;;;;34.10;19.60;;;;;;;7.43;96.06;99363.52;106679;1275;59116;-75
2022/10/22 03:17:43;;;;;;;29.50;16.50;;;;;;;7.42;96.19;99370.27;106660;1259;73969;-74
2022/10/22 03:20:30;;;;;;;37.20;19.40;;;;;;;7.42;96.28;99367.48;106679;1281;68777;-75
2022/10/22 03:23:18;;;;;;;39.30;20.20;;;;;;;7.42;96.44;99367.45;106663;1288;73442;-75
2022/10/22 03:26:06;;;;;;;34.90;18.80;;;;;;;7.44;96.82;99372.29;106528;1285;57778;-76
2022/10/22 03:28:53;;;;;;;32.60;18.20;;;;;;;7.45;96.74;99372.52;106674;1281;60149;-75
2022/10/22 03:31:40;;;;;;;38.70;22.10;;;;;;;7.43;97.22;99371.84;106468;1283;72994;-76
2022/10/22 03:34:26;;;;;;;33.30;19.20;;;;;;;7.43;97.02;99371.27;106661;1275;67619;-75
2022/10/22 03:37:13;;;;;;;35.00;19.60;;;;;;;7.43;97.30;99371.11;106506;1283;73607;-75
2022/10/22 03:39:59;;;;;;;37.60;20.90;;;;;;;7.43;97.49;99372.37;106653;1282;59086;-74
2022/10/22 03:42:46;;;;;;;36.00;20.60;;;;;;;7.44;97.06;99376.85;106667;1282;60051;-74
2022/10/22 03:45:32;;;;;;;32.60;19.10;;;;;;;7.47;97.10;99378.02;106659;1281;72857;-75
2022/10/22 03:48:19;;;;;;;31.40;18.00;;;;;;;7.49;97.06;99379.12;106681;1275;66955;-75
2022/10/22 03:51:05;;;;;;;34.80;20.60;;;;;;;7.50;97.30;99382.78;106661;1282;73665;-75
2022/10/22 03:53:52;;;;;;;35.10;19.10;;;;;;;7.49;97.58;99384.39;106672;1275;60339;-76
2022/10/22 03:56:38;;;;;;;38.30;20.20;;;;;;;7.48;97.54;99385.55;106683;1275;59248;-76
2022/10/22 03:59:24;;;;;;;34.30;19.80;;;;;;;7.48;97.92;99385.73;106683;1284;72799;-76
2022/10/22 04:02:13;;;;;;;34.40;19.80;;;;;;;7.48;97.72;99386.98;106637;1282;68054;-76
2022/10/22 04:04:59;;;;;;;35.00;18.60;;;;;;;7.47;98.00;99392.30;106643;1282;73516;-75
2022/10/22 04:07:46;;;;;;;34.00;18.10;;;;;;;7.48;98.13;99396.50;106634;1288;59401;-76
2022/10/22 04:10:32;;;;;;;35.80;19.50;;;;;;;7.49;98.04;99391.85;106653;1279;59471;-76
2022/10/22 04:13:18;;;;;;;36.00;20.70;;;;;;;7.50;97.79;99393.52;106558;1274;72853;-78
2022/10/22 04:16:10;;;;;;;37.50;21.00;;;;;;;7.53;97.99;99394.54;106639;1283;66160;-77
2022/10/22 04:18:57;;;;;;;36.90;21.00;;;;;;;7.58;97.88;99389.96;106610;1282;71677;-77
2022/10/22 04:21:44;;;;;;;35.30;20.60;;;;;;;7.63;97.59;99392.38;106602;1279;60641;-78
2022/10/22 04:24:30;;;;;;;35.90;19.90;;;;;;;7.66;97.61;99390.19;106655;1283;61314;-78
2022/10/22 04:27:16;;;;;;;35.80;20.30;;;;;;;7.68;97.20;99390.42;106477;1283;73928;-78
2022/10/22 04:30:05;;;;;;;37.70;20.70;;;;;;;7.69;97.20;99380.42;106672;1282;67566;-77
2022/10/22 04:32:52;;;;;;;36.00;20.20;;;;;;;7.71;96.90;99378.54;106638;1276;70212;-77
2022/10/22 04:35:38;;;;;;;37.90;22.10;;;;;;;7.73;97.36;99372.89;106594;1283;59403;-77
2022/10/22 04:38:25;;;;;;;37.80;21.40;;;;;;;7.76;97.01;99365.78;106630;1282;61215;-79
2022/10/22 04:41:19;;;;;;;40.10;21.30;;;;;;;7.79;96.73;99365.73;106603;1279;74133;-77
2022/10/22 04:44:07;;;;;;;38.50;21.50;;;;;;;7.80;96.59;99363.00;106432;1281;68458;-77
2022/10/22 04:47:01;;;;;;;36.10;21.30;;;;;;;7.82;96.39;99363.21;106602;1275;72529;-79
2022/10/22 04:49:48;;;;;;;37.70;21.20;;;;;;;7.86;96.37;99365.92;106506;1285;60436;-77
2022/10/22 04:52:34;;;;;;;39.20;22.80;;;;;;;7.88;96.22;99365.09;106627;1282;58776;-77
2022/10/22 04:55:21;;;;;;;37.80;22.50;;;;;;;7.91;96.42;99361.13;106640;1275;73311;-80
2022/10/22 04:58:08;;;;;;;32.30;19.10;;;;;;;7.94;96.41;99364.77;106626;1283;67765;-78
2022/10/22 05:00:54;;;;;;;36.70;21.90;;;;;;;7.93;96.27;99368.02;106627;1275;73725;-79
2022/10/22 05:03:42;;;;;;;36.30;21.70;;;;;;;7.90;96.31;99362.23;106617;1282;59414;-80
2022/10/22 05:06:31;;;;;;;39.10;21.00;;;;;;;7.91;96.38;99368.86;106644;1276;60255;-78
2022/10/22 05:09:20;;;;;;;38.40;20.60;;;;;;;7.92;96.13;99370.72;106501;1282;72700;-79
2022/10/22 05:12:06;;;;;;;37.60;21.70;;;;;;;7.93;96.10;99369.58;106482;1283;67902;-79
2022/10/22 05:14:55;;;;;;;36.30;21.10;;;;;;;7.92;96.02;99372.14;106632;1276;73594;-78
2022/10/22 05:17:42;;;;;;;37.30;21.40;;;;;;;7.93;96.44;99366.73;106564;1290;60447;-77
2022/10/22 05:20:29;;;;;;;34.50;20.40;;;;;;;7.96;96.00;99356.82;106414;1282;58912;-78
2022/10/22 05:23:15;;;;;;;34.20;21.20;;;;;;;8.00;96.06;99348.56;106673;1275;72820;-80
2022/10/22 05:26:07;;;;;;;38.00;21.60;;;;;;;8.02;96.15;99341.52;106718;1279;67113;-80
2022/10/22 05:28:53;;;;;;;34.30;19.90;;;;;;;8.03;95.81;99341.41;106489;1283;71301;-82
2022/10/22 05:31:40;;;;;;;35.40;22.30;;;;;;;8.02;95.83;99339.40;106680;1283;60400;-79
2022/10/22 05:34:27;;;;;;;37.20;21.70;;;;;;;8.01;95.73;99340.55;106552;1282;57683;-81
2022/10/22 05:37:13;;;;;;;39.40;21.50;;;;;;;8.02;95.93;99350.36;106654;1282;73968;-80
2022/10/22 05:40:00;;;;;;;38.00;19.60;;;;;;;8.04;95.86;99340.30;106501;1278;67497;-79
2022/10/22 05:43:06;;;;;;;35.20;21.40;;;;;;;8.09;95.73;99333.55;106391;1278;73173;-80
2022/10/22 05:45:53;;;;;;;39.20;21.70;;;;;;;8.13;95.35;99333.60;106603;1281;57384;-81
2022/10/22 05:48:40;;;;;;;39.40;22.40;;;;;;;8.16;94.94;99336.73;106362;1284;58910;-76
2022/10/22 05:51:29;;;;;;;37.50;21.30;;;;;;;8.21;95.32;99350.46;106556;1275;73108;-77
2022/10/22 05:54:19;;;;;;;35.00;21.30;;;;;;;8.21;95.28;99361.94;106624;1282;68727;-78
2022/10/22 05:57:08;;;;;;;33.00;18.70;;;;;;;8.21;95.18;99377.35;106589;1274;72488;-73
2022/10/22 05:59:54;;;;;;;34.40;19.00;;;;;;;8.22;95.37;99393.55;106617;1282;58480;-77
2022/10/22 06:02:41;;;;;;;39.60;22.20;;;;;;;8.24;95.32;99399.73;106568;1282;59062;-81
2022/10/22 06:05:27;;;;;;;37.30;21.80;;;;;;;8.30;95.79;99382.24;106653;1282;71861;-77
2022/10/22 06:08:14;;;;;;;38.80;21.80;;;;;;;8.42;95.55;99371.84;106640;1282;67536;-80
2022/10/22 06:11:05;;;;;;;36.30;20.00;;;;;;;8.52;95.29;99390.79;106662;1282;73530;-80
2022/10/22 06:13:51;;;;;;;33.90;20.80;;;;;;;8.56;94.93;99390.67;106475;1285;58667;-75
2022/10/22 06:16:38;;;;;;;35.90;20.70;;;;;;;8.56;94.74;99378.35;106654;1282;57940;-77
2022/10/22 06:19:25;;;;;;;34.40;19.40;;;;;;;8.56;94.82;99382.34;106513;1283;73065;-80
2022/10/22 06:22:12;;;;;;;34.00;20.30;;;;;;;8.57;94.75;99378.97;106540;1275;68576;-75
2022/10/22 06:24:58;;;;;;;37.80;21.70;;;;;;;8.60;94.89;99374.98;106634;1282;73630;-75
2022/10/22 06:27:50;;;;;;;36.70;21.80;;;;;;;8.69;94.87;99380.99;106626;1275;58209;-75
2022/10/22 06:30:37;;;;;;;39.00;21.80;;;;;;;8.79;94.70;99390.40;106523;1278;58756;-79
2022/10/22 06:33:33;;;;;;;41.20;23.50;;;;;;;8.86;94.24;99396.36;106702;1282;72819;-78
2022/10/22 06:36:22;;;;;;;36.50;22.70;;;;;;;8.93;94.28;99397.08;106695;1282;66522;-78
2022/10/22 06:39:15;;;;;;;39.40;23.50;;;;;;;8.99;93.89;99401.01;106562;1282;70322;-80
2022/10/22 06:42:01;;;;;;;40.20;23.50;;;;;;;9.05;93.90;99401.02;106726;1282;57732;-79
2022/10/22 06:44:52;;;;;;;37.70;22.10;;;;;;;9.11;93.83;99394.91;106610;1285;57970;-81
2022/10/22 06:47:42;;;;;;;40.40;23.60;;;;;;;9.16;93.36;99393.09;106698;1274;73392;-78
2022/10/22 06:50:29;;;;;;;44.60;23.90;;;;;;;9.22;93.69;99388.36;106601;1275;66555;-78
2022/10/22 06:53:16;;;;;;;40.60;23.30;;;;;;;9.25;93.38;99381.77;106488;1281;73960;-77
2022/10/22 06:56:10;;;;;;;38.50;24.50;;;;;;;9.25;93.04;99382.11;106496;1284;60593;-76
2022/10/22 06:58:57;;;;;;;39.50;23.50;;;;;;;9.27;93.16;99388.86;106526;1277;58759;-73
2022/10/22 07:01:43;;;;;;;39.00;23.20;;;;;;;9.28;92.95;99386.61;106294;1284;74135;-77
2022/10/22 07:04:30;;;;;;;39.30;23.30;;;;;;;9.34;93.17;99386.25;106477;1282;67748;-78
2022/10/22 07:07:16;;;;;;;40.10;23.80;;;;;;;9.40;93.22;99384.41;106665;1282;72350;-80
2022/10/22 07:10:03;;;;;;;46.20;26.00;;;;;;;9.44;93.10;99383.16;106632;1282;58843;-78
2022/10/22 07:12:50;;;;;;;37.50;22.90;;;;;;;9.48;92.74;99386.36;106565;1281;61261;-76
2022/10/22 07:15:36;;;;;;;40.40;25.40;;;;;;;9.50;92.49;99390.08;106645;1275;72866;-73
2022/10/22 07:18:23;;;;;;;40.80;23.80;;;;;;;9.53;92.54;99395.46;106532;1277;68645;-79
2022/10/22 07:21:35;;;;;;;38.50;22.50;;;;;;;9.60;92.80;99395.15;106557;1282;72724;-78
2022/10/22 07:24:22;;;;;;;39.00;23.20;;;;;;;9.67;93.05;99398.08;106523;1283;58175;-80
2022/10/22 07:27:08;;;;;;;38.90;24.20;;;;;;;9.79;93.07;99401.34;106501;1275;60135;-77
2022/10/22 07:29:59;;;;;;;44.30;24.70;;;;;;;9.88;93.01;99398.04;106543;1278;71539;-79
2022/10/22 07:32:45;;;;;;;40.00;24.40;;;;;;;9.95;92.62;99406.47;106683;1275;66268;-79
2022/10/22 07:35:33;;;;;;;40.60;24.50;;;;;;;9.95;91.98;99412.56;106711;1275;72395;-74
2022/10/22 07:38:19;;;;;;;39.00;23.90;;;;;;;9.94;92.27;99414.43;106609;1282;59288;-78
2022/10/22 07:41:06;;;;;;;36.80;22.70;;;;;;;9.91;92.46;99417.88;106664;1275;61162;-74
2022/10/22 07:43:53;;;;;;;37.50;22.60;;;;;;;9.88;92.56;99415.45;106651;1275;71531;-75
2022/10/22 07:46:39;;;;;;;38.30;24.00;;;;;;;9.86;92.85;99412.41;106526;1285;68614;-74
2022/10/22 07:49:26;;;;;;;37.70;22.80;;;;;;;9.89;93.24;99410.17;106621;1282;72440;-75
2022/10/22 07:52:14;;;;;;;42.70;24.50;;;;;;;9.92;92.91;99407.26;106641;1282;59604;-71
2022/10/22 07:55:00;;;;;;;37.40;23.70;;;;;;;9.93;92.79;99409.88;106634;1282;61112;-73
2022/10/22 07:57:47;;;;;;;37.80;22.90;;;;;;;9.94;93.00;99413.83;106536;1282;72896;-74
2022/10/22 08:00:33;;;;;;;36.90;23.10;;;;;;;9.95;93.08;99410.92;106681;1282;66722;-78
2022/10/22 08:03:20;;;;;;;44.70;24.50;;;;;;;10.02;93.50;99410.01;106629;1282;72517;-77
2022/10/22 08:06:11;;;;;;;36.70;22.20;;;;;;;10.08;93.31;99407.91;106648;1276;57367;-73
2022/10/22 08:08:58;;;;;;;41.80;24.20;;;;;;;10.10;93.10;99405.42;106666;1282;59958;-73
2022/10/22 08:11:45;;;;;;;40.30;25.10;;;;;;;10.14;92.95;99410.01;106620;1283;73963;-75
2022/10/22 08:14:31;;;;;;;40.60;24.40;;;;;;;10.20;93.16;99410.41;106472;1283;186584;-76
2022/10/22 08:17:17;;;;;;;40.10;23.30;;;;;;;10.25;93.11;99403.73;106498;1282;70973;-75
2022/10/22 08:20:04;;;;;;;35.20;21.20;;;;;;;10.31;93.29;99407.64;106529;1275;57317;-73
2022/10/22 08:22:51;;;;;;;35.90;22.70;;;;;;;10.38;93.20;99406.55;106659;1281;57866;-74
2022/10/22 08:25:37;;;;;;;37.10;21.60;;;;;;;10.41;92.97;99408.79;106510;1275;72859;-73
2022/10/22 08:28:23;;;;;;;34.80;20.70;;;;;;;10.44;92.94;99401.94;106663;1282;68484;-72
2022/10/22 08:31:10;;;;;;;42.10;25.10;;;;;;;10.49;92.86;99401.20;106622;1282;72507;-73
2022/10/22 08:33:56;;;;;;;41.90;24.40;;;;;;;10.54;92.77;99401.44;106635;1275;60347;-73
2022/10/22 08:36:43;;;;;;;40.60;25.10;;;;;;;10.60;92.92;99400.21;106646;1275;60161;-72
2022/10/22 08:39:29;;;;;;;44.10;25.70;;;;;;;10.69;92.88;99396.74;106630;1279;71443;-75
2022/10/22 08:42:42;;;;;;;40.80;25.00;;;;;;;10.82;92.75;99395.97;106627;1269;66648;-76
2022/10/22 08:45:46;;;;;;;44.40;25.60;;;;;;;10.95;92.62;99398.90;106644;1290;74113;-75
2022/10/22 08:48:52;;;;;;;42.20;25.70;;;;;;;11.05;92.57;99392.50;106537;1278;57675;-74
2022/10/22 08:51:39;;;;;;;44.10;25.10;;;;;;;11.18;92.63;99395.05;106401;1277;60077;-74
2022/10/22 08:54:32;;;;;;;39.00;23.80;;;;;;;11.27;92.12;99392.84;106495;1283;72883;-71
2022/10/22 08:57:48;;;;;;;42.60;24.00;;;;;;;11.37;92.03;99396.15;106463;1285;67835;-76
2022/10/22 09:00:58;;;;;;;41.30;24.40;;;;;;;11.46;91.70;99395.89;106496;1284;72434;-71
2022/10/22 09:03:53;;;;;;;37.90;23.40;;;;;;;11.45;91.18;99393.34;106438;1286;59290;-72
2022/10/22 09:06:43;;;;;;;42.20;22.10;;;;;;;11.47;91.02;99390.82;106632;1282;61384;-72
2022/10/22 09:09:41;;;;;;;32.50;19.50;;;;;;;11.44;90.74;99391.43;106650;1282;73957;-72
2022/10/22 09:12:27;;;;;;;41.00;23.20;;;;;;;11.43;91.14;99395.49;106496;1279;68795;-72
2022/10/22 09:15:16;;;;;;;39.40;23.10;;;;;;;11.46;91.49;99393.73;106613;1288;73746;-70
2022/10/22 09:18:23;;;;;;;44.40;25.10;;;;;;;11.56;91.26;99394.42;106259;1288;60429;-70
2022/10/22 09:21:37;;;;;;;45.90;25.60;;;;;;;11.70;90.81;99397.58;106670;1281;58784;-70
2022/10/22 09:24:40;;;;;;;44.60;24.80;;;;;;;11.79;90.16;99397.98;106428;1285;71530;-74
2022/10/22 09:27:30;;;;;;;37.80;23.10;;;;;;;11.89;89.19;99400.30;106633;1281;67449;-76
2022/10/22 09:30:21;;;;;;;41.30;25.00;;;;;;;11.91;89.11;99406.98;106632;1283;73576;-72
2022/10/22 09:33:24;;;;;;;41.30;25.70;;;;;;;11.98;88.77;99407.63;106631;1275;57148;-74
2022/10/22 09:36:21;;;;;;;43.40;25.50;;;;;;;12.04;88.65;99413.10;106671;1282;58712;-74
2022/10/22 09:39:46;;;;;;;43.20;25.30;;;;;;;11.97;87.69;99421.04;106415;1282;72721;-73
2022/10/22 09:42:33;;;;;;;43.90;25.40;;;;;;;11.76;87.82;99423.13;106644;1276;66563;-73
2022/10/22 09:45:24;;;;;;;51.30;28.90;;;;;;;11.68;88.65;99425.55;106565;1282;73759;-75
2022/10/22 09:48:29;;;;;;;50.70;29.10;;;;;;;11.68;88.95;99430.52;106580;1282;59461;-70
2022/10/22 09:51:47;;;;;;;40.50;24.50;;;;;;;11.63;88.68;99430.10;106634;1282;60189;-72
2022/10/22 09:54:41;;;;;;;47.20;28.70;;;;;;;11.58;89.28;99429.97;106494;1281;73898;-74
2022/10/22 09:57:28;;;;;;;46.50;26.80;;;;;;;11.55;89.23;99433.92;106510;1277;68781;-73
2022/10/22 10:00:18;;;;;;;44.50;27.60;;;;;;;11.44;89.33;99433.02;106496;1277;72441;-72
2022/10/22 10:03:05;;;;;;;43.80;25.60;;;;;;;11.38;89.84;99432.27;106534;1284;59960;-71
2022/10/22 10:05:57;;;;;;;45.40;26.20;;;;;;;11.33;90.23;99430.08;106503;1285;60508;-75
2022/10/22 10:08:50;;;;;;;43.50;24.00;;;;;;;11.35;90.76;99425.00;106481;1269;73923;-74
2022/10/22 10:11:59;;;;;;;43.50;25.10;;;;;;;11.43;90.81;99424.60;106504;1286;67665;-77
2022/10/22 10:14:57;;;;;;;43.50;24.20;;;;;;;11.54;90.56;99422.17;106470;1284;73550;-73
2022/10/22 10:18:13;;;;;;;40.20;23.30;;;;;;;11.64;90.16;99418.77;106487;1285;57345;-72
2022/10/22 10:21:36;;;;;;;37.90;21.70;;;;;;;11.74;90.33;99416.25;106499;1277;61163;-74
2022/10/22 10:24:59;;;;;;;37.00;21.90;;;;;;;11.83;89.65;99415.27;106494;1275;72103;-77
2022/10/22 10:28:10;;;;;;;35.30;19.60;;;;;;;11.89;89.14;99409.65;106467;1285;68030;-76
2022/10/22 10:31:17;;;;;;;33.60;18.80;;;;;;;11.98;88.79;99409.24;106473;1285;73632;-74
2022/10/22 10:34:44;;;;;;;37.10;19.80;;;;;;;12.03;88.54;99405.52;106518;1278;57730;-74
2022/10/22 10:37:45;;;;;;;33.70;17.90;;;;;;;12.15;88.77;99408.02;106594;1282;60203;-75
2022/10/22 10:41:07;;;;;;;35.20;19.80;;;;;;;12.21;87.82;99400.34;106393;1284;73512;-78
2022/10/22 10:44:26;;;;;;;38.40;20.50;;;;;;;12.31;87.62;99401.54;106462;1282;66478;-77
2022/10/22 10:47:37;;;;;;;36.10;19.90;;;;;;;12.40;87.47;99408.16;106490;1277;72439;-74
2022/10/22 10:50:40;;;;;;;33.30;19.60;;;;;;;12.48;87.29;99408.27;106546;1283;59436;-75
2022/10/22 10:53:57;;;;;;;33.70;18.90;;;;;;;12.57;86.84;99405.91;106483;1282;58819;-73
2022/10/22 10:56:53;;;;;;;29.10;16.20;;;;;;;12.71;86.87;99404.99;106639;1281;71727;-75
2022/10/22 10:59:57;;;;;;;30.90;16.90;;;;;;;12.84;86.56;99406.73;106657;1282;68776;-75
2022/10/22 11:03:13;;;;;;;28.20;15.80;;;;;;;13.00;85.55;99398.43;106678;1282;70757;-75
2022/10/22 11:06:07;;;;;;;27.70;16.40;;;;;;;13.05;84.73;99402.90;106421;1282;60691;-75
2022/10/22 11:09:17;;;;;;;27.40;15.90;;;;;;;13.07;84.94;99402.52;106627;1283;60089;-75
2022/10/22 11:12:22;;;;;;;25.70;15.10;;;;;;;13.05;84.48;99400.23;106491;1282;73023;-75
2022/10/22 11:15:32;;;;;;;23.90;14.00;;;;;;;13.00;84.70;99398.77;106554;1286;67746;-75
2022/10/22 11:18:34;;;;;;;23.20;13.30;;;;;;;13.00;84.72;99397.05;106512;1282;72595;-73
2022/10/22 11:21:33;;;;;;;25.40;14.70;;;;;;;12.93;84.71;99398.39;106647;1282;59529;-74
2022/10/22 11:24:49;;;;;;;24.00;14.20;;;;;;;12.91;85.30;99406.42;106430;1281;58644;-72
2022/10/22 11:27:52;;;;;;;22.80;12.20;;;;;;;12.94;85.18;99396.81;106651;1282;74057;-71
2022/10/22 11:30:42;;;;;;;22.10;12.70;;;;;;;12.92;84.78;99395.05;106424;1283;67582;-74
2022/10/22 11:33:45;;;;;;;22.80;13.00;;;;;;;12.87;85.04;99397.51;106489;1282;72501;-72
2022/10/22 11:36:33;;;;;;;26.00;13.40;;;;;;;12.86;85.60;99399.05;106459;1282;57788;-74
2022/10/22 11:39:47;;;;;;;26.70;15.20;;;;;;;12.79;85.56;99401.02;106355;1283;60241;-74
2022/10/22 11:42:44;;;;;;;27.50;14.00;;;;;;;12.73;86.13;99404.04;106637;1275;73003;-72
2022/10/22 11:45:42;;;;;;;26.60;14.40;;;;;;;12.63;86.67;99404.50;106521;1283;67848;-73
2022/10/22 11:48:36;;;;;;;23.70;13.00;;;;;;;12.55;87.28;99401.21;106499;1282;72532;-72
2022/10/22 11:51:39;;;;;;;25.70;14.20;;;;;;;12.49;88.02;99403.00;106416;1283;57460;-72
2022/10/22 11:54:41;;;;;;;27.10;14.50;;;;;;;12.48;88.37;99399.88;106488;1278;61252;-72
2022/10/22 11:57:37;;;;;;;29.70;13.90;;;;;;;12.45;88.46;99402.67;106483;1281;72817;-72
2022/10/22 12:00:47;;;;;;;29.90;13.80;;;;;;;12.42;88.78;99404.74;106400;1289;67638;-72
2022/10/22 12:03:34;;;;;;;25.00;10.90;;;;;;;12.42;89.16;99409.74;106516;1283;72483;-72
2022/10/22 12:06:26;;;;;;;32.90;14.40;;;;;;;12.34;89.43;99409.77;106577;1288;59462;-74
2022/10/22 12:09:12;;;;;;;33.50;14.40;;;;;;;12.29;89.68;99411.88;106539;1282;60160;-73
2022/10/22 12:12:13;;;;;;;28.60;12.60;;;;;;;12.24;90.16;99411.95;106638;1282;72781;-74
2022/10/22 12:14:59;;;;;;;28.00;13.20;;;;;;;12.16;90.62;99410.97;106667;1282;67589;-73
2022/10/22 12:17:46;;;;;;;31.90;15.00;;;;;;;12.07;90.75;99408.19;106652;1281;71458;-73
2022/10/22 12:20:32;;;;;;;31.70;14.20;;;;;;;12.03;91.32;99409.86;106653;1277;57729;-72
2022/10/22 12:23:25;;;;;;;36.10;15.20;;;;;;;12.00;91.86;99411.93;106492;1285;60148;-72
2022/10/22 12:26:33;;;;;;;31.30;15.20;;;;;;;11.97;92.07;99414.11;106410;1285;74100;-73
2022/10/22 12:29:22;;;;;;;36.50;16.40;;;;;;;11.93;92.56;99418.05;106660;1283;66645;-72
2022/10/22 12:32:13;;;;;;;34.50;16.00;;;;;;;11.92;92.90;99414.00;106634;1282;73651;-72
2022/10/22 12:35:06;;;;;;;39.50;17.10;;;;;;;11.90;93.25;99414.58;106475;1282;59474;-71
2022/10/22 12:38:00;;;;;;;43.20;19.30;;;;;;;11.91;93.38;99411.96;106507;1276;61278;-71
2022/10/22 12:40:52;;;;;;;44.10;18.70;;;;;;;11.93;93.75;99417.13;106597;1282;74005;-71
2022/10/22 12:43:39;;;;;;;41.20;16.40;;;;;;;11.92;93.91;99415.44;106517;1284;68841;-73
2022/10/22 12:46:29;;;;;;;46.10;18.80;;;;;;;11.91;93.99;99416.77;106624;1282;72390;-72
2022/10/22 12:49:27;;;;;;;38.60;17.40;;;;;;;11.90;94.51;99414.38;106576;1275;57959;-72
2022/10/22 12:52:21;;;;;;;45.80;18.90;;;;;;;11.87;94.68;99418.02;106415;1282;61137;-72
2022/10/22 12:55:09;;;;;;;41.50;17.00;;;;;;;11.86;95.03;99415.13;106508;1286;73902;-71
2022/10/22 12:57:56;;;;;;;52.60;23.00;;;;;;;11.86;95.27;99420.41;106467;1278;67983;-72
2022/10/22 13:00:45;;;;;;;53.70;23.80;;;;;;;11.88;95.41;99420.21;106490;1286;72803;-72
2022/10/22 13:03:39;;;;;;;49.20;21.10;;;;;;;11.91;95.51;99416.45;106495;1289;59382;-72
2022/10/22 13:06:27;;;;;;;51.10;21.00;;;;;;;11.93;95.52;99417.66;106585;1276;58798;-73
2022/10/22 13:09:23;;;;;;;47.40;23.00;;;;;;;11.96;95.84;99422.09;106512;1284;71465;-73
2022/10/22 13:12:15;;;;;;;51.40;23.20;;;;;;;11.97;95.78;99418.40;106370;1284;68882;-73